sensor_id;sensor_type;location;lat;lon;timestamp;pressure;altitude;pressure_sealevel;temperature;humidity
12536;BME280;6334;48.696;2.114;2023-02-03T00:00:25;101704.70;;;8.00;71.18
12536;BME280;6334;48.696;2.114;2023-02-03T00:02:56;101700.70;;;8.23;70.75
12536;BME280;6334;48.696;2.114;2023-02-03T00:05:26;101697.73;;;8.07;70.62
12536;BME280;6334;48.696;2.114;2023-02-03T00:07:57;101696.30;;;7.89;71.65
12536;BME280;6334;48.696;2.114;2023-02-03T00:10:27;101714.03;;;7.99;71.52
12536;BME280;6334;48.696;2.114;2023-02-03T00:12:58;101708.22;;;8.11;71.33
12536;BME280;6334;48.696;2.114;2023-02-03T00:15:28;101713.88;;;8.06;71.55
12536;BME280;6334;48.696;2.114;2023-02-03T00:17:58;101721.05;;;8.17;71.37
12536;BME280;6334;48.696;2.114;2023-02-03T00:20:29;101724.33;;;8.20;71.12
12536;BME280;6334;48.696;2.114;2023-02-03T00:23:06;101700.65;;;8.17;70.82
12536;BME280;6334;48.696;2.114;2023-02-03T00:25:36;101713.73;;;8.10;71.18
12536;BME280;6334;48.696;2.114;2023-02-03T00:28:13;101708.69;;;8.14;71.42
12536;BME280;6334;48.696;2.114;2023-02-03T00:30:44;101708.52;;;8.17;71.36
12536;BME280;6334;48.696;2.114;2023-02-03T00:33:14;101706.98;;;7.98;71.74
12536;BME280;6334;48.696;2.114;2023-02-03T00:35:45;101712.50;;;8.14;71.08
12536;BME280;6334;48.696;2.114;2023-02-03T00:38:15;101703.45;;;8.26;70.86
12536;BME280;6334;48.696;2.114;2023-02-03T00:40:54;101701.33;;;8.07;71.52
12536;BME280;6334;48.696;2.114;2023-02-03T00:43:24;101690.50;;;8.05;71.62
12536;BME280;6334;48.696;2.114;2023-02-03T00:45:55;101695.59;;;8.01;71.67
12536;BME280;6334;48.696;2.114;2023-02-03T00:48:25;101697.71;;;7.92;71.47
12536;BME280;6334;48.696;2.114;2023-02-03T00:50:57;101696.09;;;8.01;71.28
12536;BME280;6334;48.696;2.114;2023-02-03T00:53:27;101693.84;;;7.84;71.63
12536;BME280;6334;48.696;2.114;2023-02-03T00:55:58;101699.34;;;8.24;70.44
12536;BME280;6334;48.696;2.114;2023-02-03T00:58:28;101671.27;;;7.86;71.12
12536;BME280;6334;48.696;2.114;2023-02-03T01:00:59;101679.72;;;8.02;70.63
12536;BME280;6334;48.696;2.114;2023-02-03T01:03:29;101684.97;;;7.94;70.87
12536;BME280;6334;48.696;2.114;2023-02-03T01:06:13;101686.12;;;7.62;71.70
12536;BME280;6334;48.696;2.114;2023-02-03T01:08:41;101681.19;;;7.82;70.87
12536;BME280;6334;48.696;2.114;2023-02-03T01:11:13;101676.66;;;7.89;70.95
12536;BME280;6334;48.696;2.114;2023-02-03T01:13:42;101664.98;;;7.90;70.19
12536;BME280;6334;48.696;2.114;2023-02-03T01:16:13;101654.39;;;7.97;69.89
12536;BME280;6334;48.696;2.114;2023-02-03T01:18:43;101635.36;;;7.55;70.87
12536;BME280;6334;48.696;2.114;2023-02-03T01:21:15;101652.48;;;7.94;70.14
12536;BME280;6334;48.696;2.114;2023-02-03T01:23:44;101643.63;;;7.71;70.91
12536;BME280;6334;48.696;2.114;2023-02-03T01:26:15;101644.73;;;7.94;70.03
12536;BME280;6334;48.696;2.114;2023-02-03T01:28:51;101645.07;;;7.85;70.29
12536;BME280;6334;48.696;2.114;2023-02-03T01:31:24;101639.89;;;7.70;70.22
12536;BME280;6334;48.696;2.114;2023-02-03T01:33:51;101642.00;;;7.81;70.19
12536;BME280;6334;48.696;2.114;2023-02-03T01:36:23;101636.02;;;7.78;70.17
12536;BME280;6334;48.696;2.114;2023-02-03T01:38:52;101631.83;;;7.63;70.73
12536;BME280;6334;48.696;2.114;2023-02-03T01:41:24;101622.02;;;7.91;69.84
12536;BME280;6334;48.696;2.114;2023-02-03T01:43:54;101627.53;;;7.76;70.39
12536;BME280;6334;48.696;2.114;2023-02-03T01:49:10;101617.02;;;7.66;70.23
12536;BME280;6334;48.696;2.114;2023-02-03T01:51:39;101612.01;;;7.68;70.14
12536;BME280;6334;48.696;2.114;2023-02-03T01:54:11;101609.73;;;7.57;70.57
12536;BME280;6334;48.696;2.114;2023-02-03T01:56:42;101613.61;;;7.77;70.12
12536;BME280;6334;48.696;2.114;2023-02-03T01:59:10;101614.27;;;7.89;69.38
12536;BME280;6334;48.696;2.114;2023-02-03T02:01:41;101607.91;;;7.83;69.72
12536;BME280;6334;48.696;2.114;2023-02-03T02:04:11;101607.77;;;7.62;70.44
12536;BME280;6334;48.696;2.114;2023-02-03T02:06:42;101606.09;;;7.45;71.48
12536;BME280;6334;48.696;2.114;2023-02-03T02:09:12;101597.06;;;7.44;71.55
12536;BME280;6334;48.696;2.114;2023-02-03T02:11:42;101601.73;;;7.52;71.00
12536;BME280;6334;48.696;2.114;2023-02-03T02:14:12;101595.94;;;7.53;70.95
12536;BME280;6334;48.696;2.114;2023-02-03T02:16:58;101592.70;;;7.65;70.78
12536;BME280;6334;48.696;2.114;2023-02-03T02:19:53;101585.16;;;7.29;71.87
12536;BME280;6334;48.696;2.114;2023-02-03T02:22:32;101580.81;;;7.27;72.07
12536;BME280;6334;48.696;2.114;2023-02-03T02:35:56;101592.66;;;7.50;70.55
12536;BME280;6334;48.696;2.114;2023-02-03T02:41:18;101600.71;;;7.35;70.76
12536;BME280;6334;48.696;2.114;2023-02-03T02:43:54;101591.09;;;7.22;71.13
12536;BME280;6334;48.696;2.114;2023-02-03T02:46:24;101604.94;;;7.26;70.95
12536;BME280;6334;48.696;2.114;2023-02-03T02:48:57;101601.60;;;7.21;71.18
12536;BME280;6334;48.696;2.114;2023-02-03T02:51:27;101605.39;;;6.94;71.39
12536;BME280;6334;48.696;2.114;2023-02-03T02:53:58;101599.27;;;7.17;71.07
12536;BME280;6334;48.696;2.114;2023-02-03T02:56:29;101594.56;;;6.97;71.27
12536;BME280;6334;48.696;2.114;2023-02-03T02:59:01;101581.44;;;7.11;70.78
12536;BME280;6334;48.696;2.114;2023-02-03T03:01:31;101580.61;;;6.95;71.48
12536;BME280;6334;48.696;2.114;2023-02-03T03:04:03;101574.79;;;6.83;72.08
12536;BME280;6334;48.696;2.114;2023-02-03T03:06:36;101568.77;;;6.65;73.16
12536;BME280;6334;48.696;2.114;2023-02-03T03:09:13;101573.01;;;6.75;72.64
12536;BME280;6334;48.696;2.114;2023-02-03T03:11:49;101581.80;;;6.59;73.58
12536;BME280;6334;48.696;2.114;2023-02-03T03:14:15;101588.71;;;6.74;72.99
12536;BME280;6334;48.696;2.114;2023-02-03T03:16:49;101570.02;;;6.81;72.27
12536;BME280;6334;48.696;2.114;2023-02-03T03:19:19;101575.97;;;6.80;72.81
12536;BME280;6334;48.696;2.114;2023-02-03T03:21:56;101588.44;;;6.91;72.01
12536;BME280;6334;48.696;2.114;2023-02-03T03:24:26;101594.73;;;7.06;71.62
12536;BME280;6334;48.696;2.114;2023-02-03T03:27:41;101605.55;;;7.24;70.91
12536;BME280;6334;48.696;2.114;2023-02-03T03:29:29;101618.58;;;7.00;71.14
12536;BME280;6334;48.696;2.114;2023-02-03T03:31:56;101627.13;;;7.04;70.94
12536;BME280;6334;48.696;2.114;2023-02-03T03:34:26;101625.64;;;7.19;70.46
12536;BME280;6334;48.696;2.114;2023-02-03T03:37:08;101635.45;;;7.55;69.61
12536;BME280;6334;48.696;2.114;2023-02-03T03:39:58;101646.25;;;7.35;69.96
12536;BME280;6334;48.696;2.114;2023-02-03T03:42:09;101638.23;;;7.23;69.97
12536;BME280;6334;48.696;2.114;2023-02-03T03:44:48;101654.98;;;7.52;69.47
12536;BME280;6334;48.696;2.114;2023-02-03T03:47:14;101665.60;;;7.40;69.61
12536;BME280;6334;48.696;2.114;2023-02-03T03:49:40;101666.41;;;7.51;69.61
12536;BME280;6334;48.696;2.114;2023-02-03T03:52:14;101668.48;;;7.45;69.08
12536;BME280;6334;48.696;2.114;2023-02-03T03:54:43;101669.89;;;7.46;69.33
12536;BME280;6334;48.696;2.114;2023-02-03T03:57:28;101652.59;;;7.22;69.65
12536;BME280;6334;48.696;2.114;2023-02-03T03:59:55;101678.38;;;7.45;69.30
12536;BME280;6334;48.696;2.114;2023-02-03T04:02:26;101685.35;;;7.12;70.26
12536;BME280;6334;48.696;2.114;2023-02-03T04:04:57;101668.16;;;7.25;69.70
12536;BME280;6334;48.696;2.114;2023-02-03T04:07:43;101684.78;;;7.33;69.69
12536;BME280;6334;48.696;2.114;2023-02-03T04:10:28;101672.76;;;7.47;69.56
12536;BME280;6334;48.696;2.114;2023-02-03T04:12:55;101662.61;;;7.37;69.54
12536;BME280;6334;48.696;2.114;2023-02-03T04:15:26;101648.07;;;7.44;69.26
12536;BME280;6334;48.696;2.114;2023-02-03T04:17:56;101645.39;;;7.22;69.72
12536;BME280;6334;48.696;2.114;2023-02-03T04:20:30;101636.67;;;7.33;69.11
12536;BME280;6334;48.696;2.114;2023-02-03T04:23:01;101611.73;;;7.20;69.36
12536;BME280;6334;48.696;2.114;2023-02-03T04:25:32;101609.75;;;7.13;69.98
12536;BME280;6334;48.696;2.114;2023-02-03T04:28:02;101637.91;;;7.09;70.99
12536;BME280;6334;48.696;2.114;2023-02-03T04:30:32;101639.55;;;7.08;70.15
12536;BME280;6334;48.696;2.114;2023-02-03T04:33:03;101640.72;;;7.08;70.12
12536;BME280;6334;48.696;2.114;2023-02-03T04:35:33;101636.23;;;6.98;70.92
12536;BME280;6334;48.696;2.114;2023-02-03T04:38:04;101634.59;;;7.08;70.70
12536;BME280;6334;48.696;2.114;2023-02-03T04:40:34;101620.27;;;7.23;70.17
12536;BME280;6334;48.696;2.114;2023-02-03T04:43:05;101629.11;;;7.19;70.20
12536;BME280;6334;48.696;2.114;2023-02-03T04:45:37;101625.84;;;7.46;69.35
12536;BME280;6334;48.696;2.114;2023-02-03T04:48:07;101630.14;;;7.09;70.14
12536;BME280;6334;48.696;2.114;2023-02-03T04:50:38;101624.69;;;7.19;69.91
12536;BME280;6334;48.696;2.114;2023-02-03T04:53:09;101626.91;;;7.55;68.92
12536;BME280;6334;48.696;2.114;2023-02-03T04:55:39;101625.50;;;7.52;69.19
12536;BME280;6334;48.696;2.114;2023-02-03T04:58:10;101626.03;;;7.53;69.20
12536;BME280;6334;48.696;2.114;2023-02-03T05:00:40;101627.19;;;7.31;69.76
12536;BME280;6334;48.696;2.114;2023-02-03T05:03:10;101625.61;;;7.60;69.38
12536;BME280;6334;48.696;2.114;2023-02-03T05:05:41;101630.66;;;7.59;69.19
12536;BME280;6334;48.696;2.114;2023-02-03T05:08:11;101633.73;;;7.31;70.50
12536;BME280;6334;48.696;2.114;2023-02-03T05:10:42;101633.53;;;7.26;70.67
12536;BME280;6334;48.696;2.114;2023-02-03T05:13:12;101641.80;;;7.33;70.22
12536;BME280;6334;48.696;2.114;2023-02-03T05:15:42;101647.19;;;7.24;70.72
12536;BME280;6334;48.696;2.114;2023-02-03T05:18:12;101641.54;;;7.08;71.28
12536;BME280;6334;48.696;2.114;2023-02-03T05:20:43;101642.59;;;7.10;71.62
12536;BME280;6334;48.696;2.114;2023-02-03T05:23:13;101645.15;;;7.22;71.14
12536;BME280;6334;48.696;2.114;2023-02-03T05:25:44;101656.31;;;7.15;71.29
12536;BME280;6334;48.696;2.114;2023-02-03T05:28:14;101663.20;;;7.40;70.24
12536;BME280;6334;48.696;2.114;2023-02-03T05:30:45;101663.80;;;7.14;71.17
12536;BME280;6334;48.696;2.114;2023-02-03T05:33:15;101673.89;;;7.00;71.58
12536;BME280;6334;48.696;2.114;2023-02-03T05:35:45;101669.88;;;7.01;71.83
12536;BME280;6334;48.696;2.114;2023-02-03T05:38:17;101668.49;;;7.37;70.60
12536;BME280;6334;48.696;2.114;2023-02-03T05:40:48;101674.58;;;7.09;71.12
12536;BME280;6334;48.696;2.114;2023-02-03T05:43:36;101681.30;;;7.19;70.92
12536;BME280;6334;48.696;2.114;2023-02-03T05:46:06;101693.91;;;7.17;70.82
12536;BME280;6334;48.696;2.114;2023-02-03T05:48:38;101697.42;;;7.35;70.42
12536;BME280;6334;48.696;2.114;2023-02-03T05:51:08;101705.62;;;7.36;70.70
12536;BME280;6334;48.696;2.114;2023-02-03T05:53:38;101711.73;;;7.35;71.31
12536;BME280;6334;48.696;2.114;2023-02-03T05:56:08;101716.67;;;7.22;72.79
12536;BME280;6334;48.696;2.114;2023-02-03T05:58:39;101724.77;;;7.16;73.72
12536;BME280;6334;48.696;2.114;2023-02-03T06:01:09;101721.05;;;7.05;74.93
12536;BME280;6334;48.696;2.114;2023-02-03T06:03:40;101718.16;;;7.17;74.22
12536;BME280;6334;48.696;2.114;2023-02-03T06:06:10;101713.16;;;7.30;73.77
12536;BME280;6334;48.696;2.114;2023-02-03T06:08:41;101709.52;;;6.90;75.52
12536;BME280;6334;48.696;2.114;2023-02-03T06:11:12;101684.84;;;6.87;74.93
12536;BME280;6334;48.696;2.114;2023-02-03T06:13:42;101702.86;;;6.75;76.48
12536;BME280;6334;48.696;2.114;2023-02-03T06:16:11;101694.44;;;6.92;76.03
12536;BME280;6334;48.696;2.114;2023-02-03T06:18:42;101691.28;;;6.86;76.02
12536;BME280;6334;48.696;2.114;2023-02-03T06:21:12;101679.45;;;6.80;76.86
12536;BME280;6334;48.696;2.114;2023-02-03T06:23:42;101663.25;;;6.61;77.04
12536;BME280;6334;48.696;2.114;2023-02-03T06:26:12;101655.84;;;6.59;77.01
12536;BME280;6334;48.696;2.114;2023-02-03T06:28:43;101651.36;;;6.84;75.92
12536;BME280;6334;48.696;2.114;2023-02-03T06:31:13;101651.70;;;6.43;77.04
12536;BME280;6334;48.696;2.114;2023-02-03T06:33:44;101659.25;;;6.47;77.06
12536;BME280;6334;48.696;2.114;2023-02-03T06:36:14;101662.84;;;6.42;77.33
12536;BME280;6334;48.696;2.114;2023-02-03T06:38:44;101659.78;;;6.32;77.86
12536;BME280;6334;48.696;2.114;2023-02-03T06:41:14;101648.57;;;6.41;77.24
12536;BME280;6334;48.696;2.114;2023-02-03T06:43:44;101651.90;;;6.63;76.82
12536;BME280;6334;48.696;2.114;2023-02-03T06:46:14;101651.09;;;6.46;76.99
12536;BME280;6334;48.696;2.114;2023-02-03T06:48:45;101669.58;;;6.81;75.79
12536;BME280;6334;48.696;2.114;2023-02-03T06:51:15;101674.13;;;6.77;75.88
12536;BME280;6334;48.696;2.114;2023-02-03T06:53:46;101669.12;;;6.92;75.67
12536;BME280;6334;48.696;2.114;2023-02-03T06:56:16;101670.63;;;6.51;76.58
12536;BME280;6334;48.696;2.114;2023-02-03T06:58:47;101670.55;;;6.89;75.45
12536;BME280;6334;48.696;2.114;2023-02-03T07:01:17;101656.42;;;6.87;75.49
12536;BME280;6334;48.696;2.114;2023-02-03T07:03:48;101669.71;;;6.78;75.83
12536;BME280;6334;48.696;2.114;2023-02-03T07:06:18;101671.03;;;6.92;75.42
12536;BME280;6334;48.696;2.114;2023-02-03T07:08:49;101669.63;;;6.95;75.17
12536;BME280;6334;48.696;2.114;2023-02-03T07:11:19;101674.03;;;6.90;75.15
12536;BME280;6334;48.696;2.114;2023-02-03T07:13:50;101682.05;;;6.73;75.60
12536;BME280;6334;48.696;2.114;2023-02-03T07:16:20;101675.61;;;6.70;75.41
12536;BME280;6334;48.696;2.114;2023-02-03T07:18:50;101694.91;;;6.74;75.66
12536;BME280;6334;48.696;2.114;2023-02-03T07:21:21;101684.17;;;6.75;75.20
12536;BME280;6334;48.696;2.114;2023-02-03T07:23:51;101696.54;;;6.61;75.71
12536;BME280;6334;48.696;2.114;2023-02-03T07:26:22;101710.70;;;6.74;75.72
12536;BME280;6334;48.696;2.114;2023-02-03T07:28:52;101712.59;;;6.76;75.35
12536;BME280;6334;48.696;2.114;2023-02-03T07:31:23;101718.16;;;6.79;75.29
12536;BME280;6334;48.696;2.114;2023-02-03T07:33:53;101720.98;;;6.91;74.97
12536;BME280;6334;48.696;2.114;2023-02-03T07:36:24;101722.30;;;6.88;74.81
12536;BME280;6334;48.696;2.114;2023-02-03T07:38:54;101719.83;;;7.13;73.94
12536;BME280;6334;48.696;2.114;2023-02-03T07:41:24;101718.09;;;6.92;74.88
12536;BME280;6334;48.696;2.114;2023-02-03T07:43:55;101716.28;;;6.81;74.93
12536;BME280;6334;48.696;2.114;2023-02-03T07:46:25;101715.69;;;6.61;76.18
12536;BME280;6334;48.696;2.114;2023-02-03T07:48:56;101716.77;;;6.80;75.97
12536;BME280;6334;48.696;2.114;2023-02-03T07:51:26;101710.55;;;6.75;75.63
12536;BME280;6334;48.696;2.114;2023-02-03T07:53:57;101713.53;;;6.74;76.18
12536;BME280;6334;48.696;2.114;2023-02-03T07:56:27;101715.88;;;6.89;75.33
12536;BME280;6334;48.696;2.114;2023-02-03T07:58:58;101707.90;;;6.79;75.67
12536;BME280;6334;48.696;2.114;2023-02-03T08:01:28;101715.30;;;6.73;76.02
12536;BME280;6334;48.696;2.114;2023-02-03T08:03:59;101713.64;;;6.78;75.78
12536;BME280;6334;48.696;2.114;2023-02-03T08:06:29;101719.10;;;6.60;76.84
12536;BME280;6334;48.696;2.114;2023-02-03T08:08:59;101714.39;;;6.78;75.98
12536;BME280;6334;48.696;2.114;2023-02-03T08:11:31;101727.27;;;6.86;75.99
12536;BME280;6334;48.696;2.114;2023-02-03T08:14:01;101730.25;;;6.91;75.71
12536;BME280;6334;48.696;2.114;2023-02-03T08:16:32;101737.05;;;6.87;76.60
12536;BME280;6334;48.696;2.114;2023-02-03T08:19:02;101735.90;;;6.89;76.53
12536;BME280;6334;48.696;2.114;2023-02-03T08:21:33;101737.43;;;6.99;76.21
12536;BME280;6334;48.696;2.114;2023-02-03T08:24:03;101745.16;;;7.03;76.48
12536;BME280;6334;48.696;2.114;2023-02-03T08:26:34;101744.20;;;6.82;77.01
12536;BME280;6334;48.696;2.114;2023-02-03T08:29:04;101747.59;;;7.13;76.49
12536;BME280;6334;48.696;2.114;2023-02-03T08:31:35;101749.42;;;7.15;76.06
12536;BME280;6334;48.696;2.114;2023-02-03T08:34:05;101739.44;;;7.19;76.08
12536;BME280;6334;48.696;2.114;2023-02-03T08:36:36;101749.52;;;7.16;76.44
12536;BME280;6334;48.696;2.114;2023-02-03T08:39:06;101746.73;;;7.25;76.38
12536;BME280;6334;48.696;2.114;2023-02-03T08:41:37;101742.17;;;7.25;76.13
12536;BME280;6334;48.696;2.114;2023-02-03T08:44:07;101744.02;;;7.34;76.27
12536;BME280;6334;48.696;2.114;2023-02-03T08:46:38;101740.36;;;7.45;75.81
12536;BME280;6334;48.696;2.114;2023-02-03T08:49:08;101746.06;;;7.36;75.99
12536;BME280;6334;48.696;2.114;2023-02-03T08:51:38;101749.16;;;7.29;76.46
12536;BME280;6334;48.696;2.114;2023-02-03T08:54:11;101749.95;;;7.48;75.84
12536;BME280;6334;48.696;2.114;2023-02-03T08:56:41;101758.56;;;7.48;75.84
12536;BME280;6334;48.696;2.114;2023-02-03T08:59:12;101766.38;;;7.40;76.08
12536;BME280;6334;48.696;2.114;2023-02-03T09:01:42;101755.03;;;7.23;76.34
12536;BME280;6334;48.696;2.114;2023-02-03T09:04:13;101766.84;;;7.49;76.08
12536;BME280;6334;48.696;2.114;2023-02-03T09:06:46;101769.41;;;7.43;76.23
12536;BME280;6334;48.696;2.114;2023-02-03T09:09:16;101764.02;;;7.77;75.07
12536;BME280;6334;48.696;2.114;2023-02-03T09:11:47;101762.61;;;7.60;76.09
12536;BME280;6334;48.696;2.114;2023-02-03T09:14:17;101764.19;;;7.68;75.80
12536;BME280;6334;48.696;2.114;2023-02-03T09:16:48;101770.25;;;7.37;76.81
12536;BME280;6334;48.696;2.114;2023-02-03T09:19:18;101774.38;;;7.77;75.80
12536;BME280;6334;48.696;2.114;2023-02-03T09:21:49;101779.84;;;7.75;75.95
12536;BME280;6334;48.696;2.114;2023-02-03T09:24:19;101775.91;;;7.43;77.11
12536;BME280;6334;48.696;2.114;2023-02-03T09:26:49;101775.97;;;7.58;77.00
12536;BME280;6334;48.696;2.114;2023-02-03T09:29:20;101771.75;;;7.73;76.08
12536;BME280;6334;48.696;2.114;2023-02-03T09:31:50;101761.82;;;7.94;75.27
12536;BME280;6334;48.696;2.114;2023-02-03T09:34:21;101770.03;;;7.85;75.80
12536;BME280;6334;48.696;2.114;2023-02-03T09:36:51;101777.31;;;7.69;76.46
12536;BME280;6334;48.696;2.114;2023-02-03T09:39:21;101772.30;;;7.68;76.75
12536;BME280;6334;48.696;2.114;2023-02-03T09:44:33;101776.72;;;7.97;75.74
12536;BME280;6334;48.696;2.114;2023-02-03T09:47:33;101785.34;;;8.19;75.03
12536;BME280;6334;48.696;2.114;2023-02-03T09:49:52;101785.95;;;7.95;75.84
12536;BME280;6334;48.696;2.114;2023-02-03T09:52:20;101776.47;;;8.19;75.21
12536;BME280;6334;48.696;2.114;2023-02-03T09:55:10;101773.07;;;8.09;74.85
12536;BME280;6334;48.696;2.114;2023-02-03T09:58:01;101785.00;;;7.97;76.06
12536;BME280;6334;48.696;2.114;2023-02-03T10:00:35;101784.39;;;8.31;74.55
12536;BME280;6334;48.696;2.114;2023-02-03T10:03:20;101792.09;;;8.40;74.27
12536;BME280;6334;48.696;2.114;2023-02-03T10:08:22;101804.67;;;8.22;75.35
12536;BME280;6334;48.696;2.114;2023-02-03T10:16:51;101800.72;;;8.45;74.38
12536;BME280;6334;48.696;2.114;2023-02-03T10:19:17;101814.35;;;8.54;74.81
12536;BME280;6334;48.696;2.114;2023-02-03T10:21:53;101818.12;;;8.27;76.51
12536;BME280;6334;48.696;2.114;2023-02-03T10:24:21;101825.23;;;8.57;74.73
12536;BME280;6334;48.696;2.114;2023-02-03T10:26:50;101822.70;;;8.46;75.61
12536;BME280;6334;48.696;2.114;2023-02-03T10:31:53;101818.77;;;8.44;75.90
12536;BME280;6334;48.696;2.114;2023-02-03T10:34:24;101819.38;;;8.42;75.93
12536;BME280;6334;48.696;2.114;2023-02-03T10:36:57;101816.20;;;8.32;75.79
12536;BME280;6334;48.696;2.114;2023-02-03T10:39:31;101824.56;;;8.32;76.05
12536;BME280;6334;48.696;2.114;2023-02-03T10:42:01;101820.78;;;8.55;75.11
12536;BME280;6334;48.696;2.114;2023-02-03T10:44:35;101824.18;;;8.71;74.78
12536;BME280;6334;48.696;2.114;2023-02-03T10:49:55;101819.89;;;8.66;74.81
12536;BME280;6334;48.696;2.114;2023-02-03T10:52:34;101822.77;;;8.54;75.11
12536;BME280;6334;48.696;2.114;2023-02-03T10:54:56;101820.23;;;8.70;74.41
12536;BME280;6334;48.696;2.114;2023-02-03T10:57:27;101819.58;;;8.38;75.70
12536;BME280;6334;48.696;2.114;2023-02-03T11:00:04;101814.39;;;8.52;75.34
12536;BME280;6334;48.696;2.114;2023-02-03T11:02:33;101819.94;;;8.48;75.59
12536;BME280;6334;48.696;2.114;2023-02-03T11:07:45;101813.82;;;8.76;74.66
12536;BME280;6334;48.696;2.114;2023-02-03T11:10:34;101802.73;;;8.67;75.30
12536;BME280;6334;48.696;2.114;2023-02-03T11:13:21;101806.56;;;8.60;75.23
12536;BME280;6334;48.696;2.114;2023-02-03T11:15:56;101801.80;;;8.80;74.90
12536;BME280;6334;48.696;2.114;2023-02-03T11:18:42;101800.47;;;8.76;74.81
12536;BME280;6334;48.696;2.114;2023-02-03T11:21:17;101780.59;;;8.35;75.99
12536;BME280;6334;48.696;2.114;2023-02-03T11:24:02;101786.41;;;8.93;74.36
12536;BME280;6334;48.696;2.114;2023-02-03T11:26:38;101783.34;;;8.96;74.10
12536;BME280;6334;48.696;2.114;2023-02-03T11:29:12;101777.06;;;8.90;74.34
12536;BME280;6334;48.696;2.114;2023-02-03T11:31:37;101795.27;;;8.77;75.15
12536;BME280;6334;48.696;2.114;2023-02-03T11:34:14;101782.88;;;8.94;74.10
12536;BME280;6334;48.696;2.114;2023-02-03T11:36:37;101778.28;;;9.07;73.91
12536;BME280;6334;48.696;2.114;2023-02-03T11:39:16;101771.23;;;9.01;73.88
12536;BME280;6334;48.696;2.114;2023-02-03T11:41:41;101775.85;;;9.37;72.82
12536;BME280;6334;48.696;2.114;2023-02-03T11:44:22;101782.44;;;9.54;72.36
12536;BME280;6334;48.696;2.114;2023-02-03T11:46:54;101779.35;;;9.30;72.95
12536;BME280;6334;48.696;2.114;2023-02-03T11:52:40;101775.86;;;9.62;71.89
12536;BME280;6334;48.696;2.114;2023-02-03T11:58:16;101774.72;;;9.08;73.04
12536;BME280;6334;48.696;2.114;2023-02-03T12:09:28;101784.67;;;9.58;71.80
12536;BME280;6334;48.696;2.114;2023-02-03T12:15:02;101785.53;;;9.40;72.08
12536;BME280;6334;48.696;2.114;2023-02-03T12:20:17;101774.86;;;9.37;72.66
12536;BME280;6334;48.696;2.114;2023-02-03T12:22:54;101777.66;;;9.56;72.04
12536;BME280;6334;48.696;2.114;2023-02-03T12:28:36;101779.23;;;9.53;72.00
12536;BME280;6334;48.696;2.114;2023-02-03T12:33:50;101752.64;;;9.36;73.18
12536;BME280;6334;48.696;2.114;2023-02-03T12:36:25;101749.26;;;9.49;72.89
12536;BME280;6334;48.696;2.114;2023-02-03T12:38:59;101753.53;;;9.50;72.51
12536;BME280;6334;48.696;2.114;2023-02-03T12:41:37;101741.03;;;9.48;72.72
12536;BME280;6334;48.696;2.114;2023-02-03T12:44:07;101730.80;;;9.52;72.70
12536;BME280;6334;48.696;2.114;2023-02-03T12:46:48;101752.21;;;9.76;72.20
12536;BME280;6334;48.696;2.114;2023-02-03T12:49:34;101734.81;;;9.41;73.35
12536;BME280;6334;48.696;2.114;2023-02-03T12:55:17;101728.83;;;9.83;72.13
12536;BME280;6334;48.696;2.114;2023-02-03T12:57:47;101724.50;;;9.62;72.92
12536;BME280;6334;48.696;2.114;2023-02-03T13:03:01;101720.34;;;9.62;73.01
12536;BME280;6334;48.696;2.114;2023-02-03T13:05:42;101711.89;;;9.68;72.76
12536;BME280;6334;48.696;2.114;2023-02-03T13:08:17;101710.52;;;9.79;72.97
12536;BME280;6334;48.696;2.114;2023-02-03T13:10:49;101704.90;;;9.72;73.08
12536;BME280;6334;48.696;2.114;2023-02-03T13:13:27;101703.54;;;9.80;72.89
12536;BME280;6334;48.696;2.114;2023-02-03T13:15:55;101698.11;;;9.86;73.07
12536;BME280;6334;48.696;2.114;2023-02-03T13:18:31;101704.77;;;9.74;73.27
12536;BME280;6334;48.696;2.114;2023-02-03T13:20:59;101697.17;;;9.80;73.58
12536;BME280;6334;48.696;2.114;2023-02-03T13:23:29;101695.59;;;9.90;72.96
12536;BME280;6334;48.696;2.114;2023-02-03T13:34:36;101669.39;;;9.43;74.13
12536;BME280;6334;48.696;2.114;2023-02-03T13:42:57;101703.61;;;9.60;73.71
12536;BME280;6334;48.696;2.114;2023-02-03T13:45:39;101701.82;;;9.49;74.58
12536;BME280;6334;48.696;2.114;2023-02-03T13:48:18;101694.84;;;9.45;74.41
12536;BME280;6334;48.696;2.114;2023-02-03T13:50:47;101695.14;;;9.46;74.53
12536;BME280;6334;48.696;2.114;2023-02-03T13:53:20;101688.81;;;9.59;73.89
12536;BME280;6334;48.696;2.114;2023-02-03T13:55:57;101701.50;;;9.67;73.71
12536;BME280;6334;48.696;2.114;2023-02-03T13:58:30;101700.78;;;9.30;74.92
12536;BME280;6334;48.696;2.114;2023-02-03T14:01:04;101701.95;;;9.69;73.90
12536;BME280;6334;48.696;2.114;2023-02-03T14:06:08;101695.94;;;9.67;73.65
12536;BME280;6334;48.696;2.114;2023-02-03T14:16:40;101693.98;;;9.78;73.24
12536;BME280;6334;48.696;2.114;2023-02-03T14:19:10;101697.36;;;9.76;73.16
12536;BME280;6334;48.696;2.114;2023-02-03T14:22:02;101700.33;;;9.49;74.35
12536;BME280;6334;48.696;2.114;2023-02-03T14:24:31;101697.71;;;9.60;73.68
12536;BME280;6334;48.696;2.114;2023-02-03T14:27:01;101697.14;;;9.69;73.47
12536;BME280;6334;48.696;2.114;2023-02-03T14:29:33;101703.48;;;9.61;74.04
12536;BME280;6334;48.696;2.114;2023-02-03T14:32:05;101706.77;;;9.82;72.93
12536;BME280;6334;48.696;2.114;2023-02-03T14:34:39;101707.77;;;9.73;73.42
12536;BME280;6334;48.696;2.114;2023-02-03T14:37:12;101698.69;;;9.96;73.08
12536;BME280;6334;48.696;2.114;2023-02-03T14:39:45;101691.00;;;9.94;73.00
12536;BME280;6334;48.696;2.114;2023-02-03T14:42:33;101695.96;;;9.82;72.96
12536;BME280;6334;48.696;2.114;2023-02-03T14:48:08;101697.22;;;9.89;73.46
12536;BME280;6334;48.696;2.114;2023-02-03T14:58:54;101686.67;;;10.04;72.73
12536;BME280;6334;48.696;2.114;2023-02-03T15:01:25;101690.24;;;9.88;73.12
12536;BME280;6334;48.696;2.114;2023-02-03T15:06:42;101703.05;;;9.89;72.75
12536;BME280;6334;48.696;2.114;2023-02-03T15:09:26;101678.84;;;9.83;72.50
12536;BME280;6334;48.696;2.114;2023-02-03T15:11:53;101687.16;;;9.98;72.09
12536;BME280;6334;48.696;2.114;2023-02-03T15:14:27;101690.41;;;9.98;72.43
12536;BME280;6334;48.696;2.114;2023-02-03T15:17:09;101689.45;;;9.96;72.42
12536;BME280;6334;48.696;2.114;2023-02-03T15:19:34;101695.73;;;10.03;71.94
12536;BME280;6334;48.696;2.114;2023-02-03T15:22:23;101700.45;;;10.16;71.87